sensor_id;sensor_type;location;lat;lon;timestamp;temperature;humidity
47590;DHT22;33316;52.298;9.056;2024-01-30T00:00:40;8.40;89.80
47590;DHT22;33316;52.298;9.056;2024-01-30T00:03:07;8.40;89.70
47590;DHT22;33316;52.298;9.056;2024-01-30T00:05:34;8.40;89.60
47590;DHT22;33316;52.298;9.056;2024-01-30T00:08:04;8.40;89.70
47590;DHT22;33316;52.298;9.056;2024-01-30T00:10:31;8.30;89.60
47590;DHT22;33316;52.298;9.056;2024-01-30T00:12:58;8.40;89.70
47590;DHT22;33316;52.298;9.056;2024-01-30T00:15:25;8.40;89.80
47590;DHT22;33316;52.298;9.056;2024-01-30T00:17:55;8.30;89.90
47590;DHT22;33316;52.298;9.056;2024-01-30T00:20:23;8.40;89.90
47590;DHT22;33316;52.298;9.056;2024-01-30T00:22:50;8.30;90.00
47590;DHT22;33316;52.298;9.056;2024-01-30T00:25:19;8.40;90.00
47590;DHT22;33316;52.298;9.056;2024-01-30T00:27:46;8.30;90.00
47590;DHT22;33316;52.298;9.056;2024-01-30T00:30:13;8.30;90.10
47590;DHT22;33316;52.298;9.056;2024-01-30T00:32:44;8.30;90.10
47590;DHT22;33316;52.298;9.056;2024-01-30T00:35:11;8.40;90.10
47590;DHT22;33316;52.298;9.056;2024-01-30T00:37:38;8.30;90.10
47590;DHT22;33316;52.298;9.056;2024-01-30T00:40:06;8.30;90.20
47590;DHT22;33316;52.298;9.056;2024-01-30T00:42:37;8.40;90.20
47590;DHT22;33316;52.298;9.056;2024-01-30T00:45:06;8.30;90.20
47590;DHT22;33316;52.298;9.056;2024-01-30T00:47:38;8.30;90.20
47590;DHT22;33316;52.298;9.056;2024-01-30T00:50:08;8.30;90.30
47590;DHT22;33316;52.298;9.056;2024-01-30T00:52:35;8.40;90.30
47590;DHT22;33316;52.298;9.056;2024-01-30T00:55:05;8.40;90.40
47590;DHT22;33316;52.298;9.056;2024-01-30T00:57:32;8.40;90.40
47590;DHT22;33316;52.298;9.056;2024-01-30T01:00:01;8.40;90.40
47590;DHT22;33316;52.298;9.056;2024-01-30T01:02:28;8.40;90.40
47590;DHT22;33316;52.298;9.056;2024-01-30T01:04:55;8.40;90.50
47590;DHT22;33316;52.298;9.056;2024-01-30T01:07:25;8.40;90.50
47590;DHT22;33316;52.298;9.056;2024-01-30T01:09:52;8.40;90.50
47590;DHT22;33316;52.298;9.056;2024-01-30T01:12:19;8.30;90.50
47590;DHT22;33316;52.298;9.056;2024-01-30T01:14:46;8.30;90.50
47590;DHT22;33316;52.298;9.056;2024-01-30T01:17:15;8.30;90.60
47590;DHT22;33316;52.298;9.056;2024-01-30T01:19:46;8.30;90.70
47590;DHT22;33316;52.298;9.056;2024-01-30T01:22:13;8.30;90.70
47590;DHT22;33316;52.298;9.056;2024-01-30T01:24:40;8.20;90.80
47590;DHT22;33316;52.298;9.056;2024-01-30T01:27:09;8.30;90.80
47590;DHT22;33316;52.298;9.056;2024-01-30T01:29:38;8.20;90.80
47590;DHT22;33316;52.298;9.056;2024-01-30T01:32:08;8.20;90.90
47590;DHT22;33316;52.298;9.056;2024-01-30T01:34:41;8.20;90.90
47590;DHT22;33316;52.298;9.056;2024-01-30T01:37:07;8.20;90.90
47590;DHT22;33316;52.298;9.056;2024-01-30T01:39:35;8.20;91.00
47590;DHT22;33316;52.298;9.056;2024-01-30T01:42:03;8.20;91.00
47590;DHT22;33316;52.298;9.056;2024-01-30T01:44:29;8.20;91.10
47590;DHT22;33316;52.298;9.056;2024-01-30T01:46:57;8.20;91.10
47590;DHT22;33316;52.298;9.056;2024-01-30T01:49:25;8.20;91.10
47590;DHT22;33316;52.298;9.056;2024-01-30T01:51:55;8.20;91.10
47590;DHT22;33316;52.298;9.056;2024-01-30T01:54:24;8.20;91.20
47590;DHT22;33316;52.298;9.056;2024-01-30T01:56:52;8.20;91.20
47590;DHT22;33316;52.298;9.056;2024-01-30T01:59:21;8.20;91.30
47590;DHT22;33316;52.298;9.056;2024-01-30T02:01:49;8.20;91.30
47590;DHT22;33316;52.298;9.056;2024-01-30T02:04:16;8.20;91.30
47590;DHT22;33316;52.298;9.056;2024-01-30T02:06:43;8.20;91.40
47590;DHT22;33316;52.298;9.056;2024-01-30T02:09:12;8.20;91.40
47590;DHT22;33316;52.298;9.056;2024-01-30T02:11:39;8.20;91.40
47590;DHT22;33316;52.298;9.056;2024-01-30T02:14:10;8.20;91.40
47590;DHT22;33316;52.298;9.056;2024-01-30T02:16:37;8.20;91.40
47590;DHT22;33316;52.298;9.056;2024-01-30T02:19:05;8.20;91.50
47590;DHT22;33316;52.298;9.056;2024-01-30T02:21:36;8.20;91.60
47590;DHT22;33316;52.298;9.056;2024-01-30T02:24:04;8.20;91.60
47590;DHT22;33316;52.298;9.056;2024-01-30T02:26:32;8.20;91.40
47590;DHT22;33316;52.298;9.056;2024-01-30T02:28:59;8.20;91.50
47590;DHT22;33316;52.298;9.056;2024-01-30T02:31:28;8.20;91.50
47590;DHT22;33316;52.298;9.056;2024-01-30T02:33:56;8.10;91.50
47590;DHT22;33316;52.298;9.056;2024-01-30T02:36:23;8.10;91.50
47590;DHT22;33316;52.298;9.056;2024-01-30T02:38:52;8.10;91.60
47590;DHT22;33316;52.298;9.056;2024-01-30T02:41:20;8.10;91.60
47590;DHT22;33316;52.298;9.056;2024-01-30T02:43:47;8.10;91.70
47590;DHT22;33316;52.298;9.056;2024-01-30T02:46:14;8.00;91.60
47590;DHT22;33316;52.298;9.056;2024-01-30T02:48:44;8.00;91.60
47590;DHT22;33316;52.298;9.056;2024-01-30T02:51:11;8.00;91.70
47590;DHT22;33316;52.298;9.056;2024-01-30T02:53:38;8.00;91.70
47590;DHT22;33316;52.298;9.056;2024-01-30T02:56:07;7.90;91.70
47590;DHT22;33316;52.298;9.056;2024-01-30T02:58:35;7.90;91.70
47590;DHT22;33316;52.298;9.056;2024-01-30T03:01:07;7.90;91.80
47590;DHT22;33316;52.298;9.056;2024-01-30T03:03:34;7.90;91.80
47590;DHT22;33316;52.298;9.056;2024-01-30T03:06:02;7.90;91.90
47590;DHT22;33316;52.298;9.056;2024-01-30T03:08:29;7.90;91.90
47590;DHT22;33316;52.298;9.056;2024-01-30T03:10:56;7.90;91.90
47590;DHT22;33316;52.298;9.056;2024-01-30T03:13:25;8.00;92.00
47590;DHT22;33316;52.298;9.056;2024-01-30T03:15:52;8.00;92.10
47590;DHT22;33316;52.298;9.056;2024-01-30T03:18:20;8.00;92.10
47590;DHT22;33316;52.298;9.056;2024-01-30T03:20:49;7.90;92.10
47590;DHT22;33316;52.298;9.056;2024-01-30T03:23:16;8.00;92.20
47590;DHT22;33316;52.298;9.056;2024-01-30T03:25:46;8.00;92.20
47590;DHT22;33316;52.298;9.056;2024-01-30T03:28:13;8.00;92.20
47590;DHT22;33316;52.298;9.056;2024-01-30T03:30:43;7.90;92.20
47590;DHT22;33316;52.298;9.056;2024-01-30T03:33:10;7.90;92.30
47590;DHT22;33316;52.298;9.056;2024-01-30T03:35:37;7.90;92.30
47590;DHT22;33316;52.298;9.056;2024-01-30T03:38:07;8.00;92.30
47590;DHT22;33316;52.298;9.056;2024-01-30T03:40:35;8.00;92.20
47590;DHT22;33316;52.298;9.056;2024-01-30T03:43:02;8.00;92.30
47590;DHT22;33316;52.298;9.056;2024-01-30T03:45:30;7.90;92.30
47590;DHT22;33316;52.298;9.056;2024-01-30T03:47:59;7.90;92.40
47590;DHT22;33316;52.298;9.056;2024-01-30T03:50:26;7.90;92.40
47590;DHT22;33316;52.298;9.056;2024-01-30T03:52:54;8.00;92.50
47590;DHT22;33316;52.298;9.056;2024-01-30T03:55:21;8.00;92.50
47590;DHT22;33316;52.298;9.056;2024-01-30T03:57:48;7.90;92.50
47590;DHT22;33316;52.298;9.056;2024-01-30T04:00:15;8.00;92.50
47590;DHT22;33316;52.298;9.056;2024-01-30T04:02:42;8.00;92.50
47590;DHT22;33316;52.298;9.056;2024-01-30T04:05:11;8.00;92.60
47590;DHT22;33316;52.298;9.056;2024-01-30T04:07:38;8.00;92.60
47590;DHT22;33316;52.298;9.056;2024-01-30T04:10:07;8.00;92.60
47590;DHT22;33316;52.298;9.056;2024-01-30T04:12:35;8.00;92.60
47590;DHT22;33316;52.298;9.056;2024-01-30T04:15:02;8.00;92.60
47590;DHT22;33316;52.298;9.056;2024-01-30T04:17:30;8.00;92.60
47590;DHT22;33316;52.298;9.056;2024-01-30T04:19:57;8.00;92.60
47590;DHT22;33316;52.298;9.056;2024-01-30T04:22:25;8.00;92.60
47590;DHT22;33316;52.298;9.056;2024-01-30T04:24:52;8.00;92.60
47590;DHT22;33316;52.298;9.056;2024-01-30T04:27:21;8.00;92.60
47590;DHT22;33316;52.298;9.056;2024-01-30T04:29:48;8.00;92.70
47590;DHT22;33316;52.298;9.056;2024-01-30T04:32:15;8.00;92.70
47590;DHT22;33316;52.298;9.056;2024-01-30T04:34:42;8.00;92.60
47590;DHT22;33316;52.298;9.056;2024-01-30T04:37:10;8.00;92.70
47590;DHT22;33316;52.298;9.056;2024-01-30T04:39:41;8.00;92.70
47590;DHT22;33316;52.298;9.056;2024-01-30T04:42:10;8.00;92.80
47590;DHT22;33316;52.298;9.056;2024-01-30T04:44:37;8.00;92.80
47590;DHT22;33316;52.298;9.056;2024-01-30T04:47:06;8.00;92.80
47590;DHT22;33316;52.298;9.056;2024-01-30T04:49:34;7.90;92.80
47590;DHT22;33316;52.298;9.056;2024-01-30T04:52:01;7.90;92.80
47590;DHT22;33316;52.298;9.056;2024-01-30T04:54:32;7.90;92.80
47590;DHT22;33316;52.298;9.056;2024-01-30T04:57:01;7.90;92.80
47590;DHT22;33316;52.298;9.056;2024-01-30T04:59:28;7.90;92.80
47590;DHT22;33316;52.298;9.056;2024-01-30T05:01:55;7.90;92.90
47590;DHT22;33316;52.298;9.056;2024-01-30T05:04:21;7.90;92.90
47590;DHT22;33316;52.298;9.056;2024-01-30T05:06:49;7.90;92.90
47590;DHT22;33316;52.298;9.056;2024-01-30T05:09:15;7.90;92.90
47590;DHT22;33316;52.298;9.056;2024-01-30T05:11:42;7.90;93.00
47590;DHT22;33316;52.298;9.056;2024-01-30T05:14:11;7.80;93.00
47590;DHT22;33316;52.298;9.056;2024-01-30T05:16:41;7.90;93.00
47590;DHT22;33316;52.298;9.056;2024-01-30T05:19:13;7.90;93.00
47590;DHT22;33316;52.298;9.056;2024-01-30T05:21:40;7.90;93.00
47590;DHT22;33316;52.298;9.056;2024-01-30T05:24:07;7.90;93.10
47590;DHT22;33316;52.298;9.056;2024-01-30T05:26:35;7.90;93.20
47590;DHT22;33316;52.298;9.056;2024-01-30T05:29:03;7.80;93.20
47590;DHT22;33316;52.298;9.056;2024-01-30T05:31:33;7.90;93.20
47590;DHT22;33316;52.298;9.056;2024-01-30T05:34:01;7.80;93.20
47590;DHT22;33316;52.298;9.056;2024-01-30T05:36:28;7.80;93.20
47590;DHT22;33316;52.298;9.056;2024-01-30T05:38:56;7.80;93.20
47590;DHT22;33316;52.298;9.056;2024-01-30T05:41:23;7.80;93.30
47590;DHT22;33316;52.298;9.056;2024-01-30T05:43:50;7.80;93.40
47590;DHT22;33316;52.298;9.056;2024-01-30T05:46:17;7.80;93.50
47590;DHT22;33316;52.298;9.056;2024-01-30T05:48:46;7.80;93.50
47590;DHT22;33316;52.298;9.056;2024-01-30T05:51:13;7.80;93.50
47590;DHT22;33316;52.298;9.056;2024-01-30T05:53:40;7.80;93.50
47590;DHT22;33316;52.298;9.056;2024-01-30T05:56:07;7.80;93.50
47590;DHT22;33316;52.298;9.056;2024-01-30T05:58:34;7.80;93.80
47590;DHT22;33316;52.298;9.056;2024-01-30T06:01:07;7.80;93.50
47590;DHT22;33316;52.298;9.056;2024-01-30T06:03:35;7.80;93.40
47590;DHT22;33316;52.298;9.056;2024-01-30T06:06:04;7.90;93.50
47590;DHT22;33316;52.298;9.056;2024-01-30T06:08:31;7.80;93.50
47590;DHT22;33316;52.298;9.056;2024-01-30T06:10:59;7.80;93.50
47590;DHT22;33316;52.298;9.056;2024-01-30T06:13:28;7.80;93.50
47590;DHT22;33316;52.298;9.056;2024-01-30T06:15:57;7.80;93.50
47590;DHT22;33316;52.298;9.056;2024-01-30T06:18:25;7.90;93.50
47590;DHT22;33316;52.298;9.056;2024-01-30T06:20:52;7.90;93.60
47590;DHT22;33316;52.298;9.056;2024-01-30T06:23:24;7.90;93.50
47590;DHT22;33316;52.298;9.056;2024-01-30T06:25:51;7.90;93.50
47590;DHT22;33316;52.298;9.056;2024-01-30T06:28:18;7.90;93.50
47590;DHT22;33316;52.298;9.056;2024-01-30T06:30:45;7.90;93.50
47590;DHT22;33316;52.298;9.056;2024-01-30T06:33:12;7.90;93.50
47590;DHT22;33316;52.298;9.056;2024-01-30T06:35:41;7.90;93.50
47590;DHT22;33316;52.298;9.056;2024-01-30T06:38:08;7.90;93.50
47590;DHT22;33316;52.298;9.056;2024-01-30T06:40:37;7.90;93.50
47590;DHT22;33316;52.298;9.056;2024-01-30T06:43:04;7.90;93.50
47590;DHT22;33316;52.298;9.056;2024-01-30T06:45:34;7.90;93.60
47590;DHT22;33316;52.298;9.056;2024-01-30T06:48:01;7.90;93.60
47590;DHT22;33316;52.298;9.056;2024-01-30T06:50:28;7.90;93.60
47590;DHT22;33316;52.298;9.056;2024-01-30T06:52:57;7.90;93.50
47590;DHT22;33316;52.298;9.056;2024-01-30T06:55:24;7.90;93.50
47590;DHT22;33316;52.298;9.056;2024-01-30T06:57:52;7.90;93.60
47590;DHT22;33316;52.298;9.056;2024-01-30T07:00:24;7.90;93.60
47590;DHT22;33316;52.298;9.056;2024-01-30T07:02:51;7.90;93.70
47590;DHT22;33316;52.298;9.056;2024-01-30T07:05:20;7.90;93.70
47590;DHT22;33316;52.298;9.056;2024-01-30T07:07:51;7.90;93.70
47590;DHT22;33316;52.298;9.056;2024-01-30T07:10:19;7.90;93.70
47590;DHT22;33316;52.298;9.056;2024-01-30T07:12:46;7.90;93.70
47590;DHT22;33316;52.298;9.056;2024-01-30T07:15:15;7.90;93.60
47590;DHT22;33316;52.298;9.056;2024-01-30T07:17:47;7.90;93.70
47590;DHT22;33316;52.298;9.056;2024-01-30T07:20:15;7.90;93.70
47590;DHT22;33316;52.298;9.056;2024-01-30T07:22:43;7.90;93.70
47590;DHT22;33316;52.298;9.056;2024-01-30T07:25:13;7.90;93.70
47590;DHT22;33316;52.298;9.056;2024-01-30T07:27:40;7.90;93.70
47590;DHT22;33316;52.298;9.056;2024-01-30T07:30:08;7.90;93.70
47590;DHT22;33316;52.298;9.056;2024-01-30T07:32:37;7.90;93.80
47590;DHT22;33316;52.298;9.056;2024-01-30T07:35:04;7.90;93.70
47590;DHT22;33316;52.298;9.056;2024-01-30T07:37:32;7.90;93.70
47590;DHT22;33316;52.298;9.056;2024-01-30T07:39:59;7.90;93.80
47590;DHT22;33316;52.298;9.056;2024-01-30T07:42:26;8.00;93.80
47590;DHT22;33316;52.298;9.056;2024-01-30T07:44:54;7.90;93.90
47590;DHT22;33316;52.298;9.056;2024-01-30T07:47:22;8.00;93.90
47590;DHT22;33316;52.298;9.056;2024-01-30T07:49:50;7.90;93.80
47590;DHT22;33316;52.298;9.056;2024-01-30T07:52:22;8.00;93.90
47590;DHT22;33316;52.298;9.056;2024-01-30T07:54:49;8.00;93.80
47590;DHT22;33316;52.298;9.056;2024-01-30T07:57:18;8.00;93.90
47590;DHT22;33316;52.298;9.056;2024-01-30T07:59:49;8.00;93.90
47590;DHT22;33316;52.298;9.056;2024-01-30T08:02:16;8.00;94.30
47590;DHT22;33316;52.298;9.056;2024-01-30T08:04:43;8.00;93.90
47590;DHT22;33316;52.298;9.056;2024-01-30T08:07:15;8.00;93.90
47590;DHT22;33316;52.298;9.056;2024-01-30T08:09:43;8.10;93.90
47590;DHT22;33316;52.298;9.056;2024-01-30T08:12:11;8.10;93.90
47590;DHT22;33316;52.298;9.056;2024-01-30T08:14:38;8.10;93.90
47590;DHT22;33316;52.298;9.056;2024-01-30T08:17:07;8.10;94.00
47590;DHT22;33316;52.298;9.056;2024-01-30T08:19:34;8.10;94.00
47590;DHT22;33316;52.298;9.056;2024-01-30T08:22:01;8.10;94.00
47590;DHT22;33316;52.298;9.056;2024-01-30T08:24:34;8.10;94.00
47590;DHT22;33316;52.298;9.056;2024-01-30T08:27:01;8.10;94.00
47590;DHT22;33316;52.298;9.056;2024-01-30T08:29:30;8.20;94.00
47590;DHT22;33316;52.298;9.056;2024-01-30T08:31:57;8.20;94.00
47590;DHT22;33316;52.298;9.056;2024-01-30T08:34:27;8.20;94.00
47590;DHT22;33316;52.298;9.056;2024-01-30T08:36:54;8.20;94.10
47590;DHT22;33316;52.298;9.056;2024-01-30T08:39:23;8.20;94.10
47590;DHT22;33316;52.298;9.056;2024-01-30T08:42:00;8.20;94.10
47590;DHT22;33316;52.298;9.056;2024-01-30T08:44:27;8.20;94.00
47590;DHT22;33316;52.298;9.056;2024-01-30T08:46:54;8.20;94.00
47590;DHT22;33316;52.298;9.056;2024-01-30T08:49:22;8.20;94.00
47590;DHT22;33316;52.298;9.056;2024-01-30T08:51:49;8.20;94.00
47590;DHT22;33316;52.298;9.056;2024-01-30T08:54:17;8.20;94.00
47590;DHT22;33316;52.298;9.056;2024-01-30T08:56:46;8.30;94.00
47590;DHT22;33316;52.298;9.056;2024-01-30T08:59:14;8.30;94.00
47590;DHT22;33316;52.298;9.056;2024-01-30T09:01:42;8.40;94.00
47590;DHT22;33316;52.298;9.056;2024-01-30T09:04:11;8.40;94.00
47590;DHT22;33316;52.298;9.056;2024-01-30T09:06:39;8.40;94.00
47590;DHT22;33316;52.298;9.056;2024-01-30T09:09:06;8.50;94.00
47590;DHT22;33316;52.298;9.056;2024-01-30T09:11:35;8.50;94.00
47590;DHT22;33316;52.298;9.056;2024-01-30T09:14:06;8.50;94.00
47590;DHT22;33316;52.298;9.056;2024-01-30T09:16:35;8.60;94.00
47590;DHT22;33316;52.298;9.056;2024-01-30T09:19:02;8.60;94.00
47590;DHT22;33316;52.298;9.056;2024-01-30T09:21:29;8.60;94.00
47590;DHT22;33316;52.298;9.056;2024-01-30T09:24:04;8.60;94.00
47590;DHT22;33316;52.298;9.056;2024-01-30T09:26:32;8.70;94.10
47590;DHT22;33316;52.298;9.056;2024-01-30T09:28:59;8.70;94.00
47590;DHT22;33316;52.298;9.056;2024-01-30T09:31:28;8.70;94.00
47590;DHT22;33316;52.298;9.056;2024-01-30T09:33:58;8.80;93.90
47590;DHT22;33316;52.298;9.056;2024-01-30T09:36:29;8.80;93.90
47590;DHT22;33316;52.298;9.056;2024-01-30T09:38:56;8.80;93.80
47590;DHT22;33316;52.298;9.056;2024-01-30T09:41:24;8.80;93.80
47590;DHT22;33316;52.298;9.056;2024-01-30T09:43:51;8.90;93.70
47590;DHT22;33316;52.298;9.056;2024-01-30T09:46:21;8.90;93.70
47590;DHT22;33316;52.298;9.056;2024-01-30T09:48:50;9.00;93.80
47590;DHT22;33316;52.298;9.056;2024-01-30T09:51:19;9.00;93.80
47590;DHT22;33316;52.298;9.056;2024-01-30T09:53:48;9.00;93.80
47590;DHT22;33316;52.298;9.056;2024-01-30T09:56:16;9.10;93.80
47590;DHT22;33316;52.298;9.056;2024-01-30T09:58:46;9.10;93.90
47590;DHT22;33316;52.298;9.056;2024-01-30T10:01:15;9.20;94.10
47590;DHT22;33316;52.298;9.056;2024-01-30T10:03:44;9.20;94.00
47590;DHT22;33316;52.298;9.056;2024-01-30T10:06:11;9.30;93.90
47590;DHT22;33316;52.298;9.056;2024-01-30T10:08:41;9.30;93.80
47590;DHT22;33316;52.298;9.056;2024-01-30T10:11:09;9.30;93.70
47590;DHT22;33316;52.298;9.056;2024-01-30T10:13:36;9.40;93.70
47590;DHT22;33316;52.298;9.056;2024-01-30T10:16:05;9.40;93.60
47590;DHT22;33316;52.298;9.056;2024-01-30T10:18:33;9.40;93.50
47590;DHT22;33316;52.298;9.056;2024-01-30T10:21:03;9.50;93.60
47590;DHT22;33316;52.298;9.056;2024-01-30T10:23:30;9.50;93.60
47590;DHT22;33316;52.298;9.056;2024-01-30T10:25:59;9.50;93.60
47590;DHT22;33316;52.298;9.056;2024-01-30T10:28:27;9.50;93.50
47590;DHT22;33316;52.298;9.056;2024-01-30T10:31:00;9.60;93.50
47590;DHT22;33316;52.298;9.056;2024-01-30T10:33:29;9.60;93.50
47590;DHT22;33316;52.298;9.056;2024-01-30T10:35:59;9.60;93.50
47590;DHT22;33316;52.298;9.056;2024-01-30T10:38:29;9.60;93.50
47590;DHT22;33316;52.298;9.056;2024-01-30T10:40:59;9.60;93.50
47590;DHT22;33316;52.298;9.056;2024-01-30T10:43:36;9.70;93.50
47590;DHT22;33316;52.298;9.056;2024-01-30T10:46:15;9.70;93.40
47590;DHT22;33316;52.298;9.056;2024-01-30T10:48:50;9.70;93.40
47590;DHT22;33316;52.298;9.056;2024-01-30T10:51:18;9.70;93.40
47590;DHT22;33316;52.298;9.056;2024-01-30T10:53:48;9.80;93.40
47590;DHT22;33316;52.298;9.056;2024-01-30T10:56:18;9.80;93.40
47590;DHT22;33316;52.298;9.056;2024-01-30T10:58:51;9.90;93.40
47590;DHT22;33316;52.298;9.056;2024-01-30T11:01:19;9.80;93.40
47590;DHT22;33316;52.298;9.056;2024-01-30T11:03:49;9.90;93.40
47590;DHT22;33316;52.298;9.056;2024-01-30T11:06:17;9.90;93.40
47590;DHT22;33316;52.298;9.056;2024-01-30T11:08:45;9.90;93.40
47590;DHT22;33316;52.298;9.056;2024-01-30T11:11:12;10.00;93.50
47590;DHT22;33316;52.298;9.056;2024-01-30T11:13:40;10.10;93.60
47590;DHT22;33316;52.298;9.056;2024-01-30T11:16:11;10.10;93.60
47590;DHT22;33316;52.298;9.056;2024-01-30T11:18:38;10.20;93.50
47590;DHT22;33316;52.298;9.056;2024-01-30T11:21:09;10.20;93.50
47590;DHT22;33316;52.298;9.056;2024-01-30T11:23:40;10.30;93.50
47590;DHT22;33316;52.298;9.056;2024-01-30T11:26:10;10.30;93.50
47590;DHT22;33316;52.298;9.056;2024-01-30T11:28:38;10.40;93.50
47590;DHT22;33316;52.298;9.056;2024-01-30T11:31:07;10.50;93.40
47590;DHT22;33316;52.298;9.056;2024-01-30T11:33:37;10.50;93.40
47590;DHT22;33316;52.298;9.056;2024-01-30T11:36:04;10.50;93.40
47590;DHT22;33316;52.298;9.056;2024-01-30T11:38:34;10.60;93.40
47590;DHT22;33316;52.298;9.056;2024-01-30T11:41:07;10.60;93.20
47590;DHT22;33316;52.298;9.056;2024-01-30T11:43:37;10.60;93.20
47590;DHT22;33316;52.298;9.056;2024-01-30T11:46:07;10.60;93.10
47590;DHT22;33316;52.298;9.056;2024-01-30T11:48:35;10.60;93.10
47590;DHT22;33316;52.298;9.056;2024-01-30T11:51:02;10.70;93.10
47590;DHT22;33316;52.298;9.056;2024-01-30T11:53:29;10.70;93.10
47590;DHT22;33316;52.298;9.056;2024-01-30T11:55:56;10.80;93.20
47590;DHT22;33316;52.298;9.056;2024-01-30T11:58:25;10.80;93.20
47590;DHT22;33316;52.298;9.056;2024-01-30T12:00:55;10.80;93.30
47590;DHT22;33316;52.298;9.056;2024-01-30T12:03:26;10.80;93.40
47590;DHT22;33316;52.298;9.056;2024-01-30T12:05:56;10.90;93.30
47590;DHT22;33316;52.298;9.056;2024-01-30T12:08:24;11.00;93.30
47590;DHT22;33316;52.298;9.056;2024-01-30T12:10:56;11.00;93.30
47590;DHT22;33316;52.298;9.056;2024-01-30T12:13:25;11.00;93.30
47590;DHT22;33316;52.298;9.056;2024-01-30T12:15:52;11.10;93.20
47590;DHT22;33316;52.298;9.056;2024-01-30T12:18:19;11.10;93.30
47590;DHT22;33316;52.298;9.056;2024-01-30T12:20:59;11.10;93.30
47590;DHT22;33316;52.298;9.056;2024-01-30T12:23:27;11.10;93.30
47590;DHT22;33316;52.298;9.056;2024-01-30T12:25:54;11.10;93.30
47590;DHT22;33316;52.298;9.056;2024-01-30T12:28:24;11.10;93.40
47590;DHT22;33316;52.298;9.056;2024-01-30T12:30:55;11.20;93.40
47590;DHT22;33316;52.298;9.056;2024-01-30T12:33:24;11.20;93.40
47590;DHT22;33316;52.298;9.056;2024-01-30T12:35:55;11.30;93.40
47590;DHT22;33316;52.298;9.056;2024-01-30T12:38:24;11.30;93.40
47590;DHT22;33316;52.298;9.056;2024-01-30T12:40:54;11.30;93.50
47590;DHT22;33316;52.298;9.056;2024-01-30T12:43:22;11.30;93.50
47590;DHT22;33316;52.298;9.056;2024-01-30T12:45:49;11.40;93.50
47590;DHT22;33316;52.298;9.056;2024-01-30T12:48:16;11.40;93.60
47590;DHT22;33316;52.298;9.056;2024-01-30T12:50:43;11.40;93.60
47590;DHT22;33316;52.298;9.056;2024-01-30T12:53:10;11.50;93.60
47590;DHT22;33316;52.298;9.056;2024-01-30T12:55:39;11.50;93.60
47590;DHT22;33316;52.298;9.056;2024-01-30T12:58:06;11.50;93.60
47590;DHT22;33316;52.298;9.056;2024-01-30T13:00:33;11.50;93.70
47590;DHT22;33316;52.298;9.056;2024-01-30T13:03:04;11.50;93.80
47590;DHT22;33316;52.298;9.056;2024-01-30T13:05:34;11.50;93.80
47590;DHT22;33316;52.298;9.056;2024-01-30T13:08:01;11.50;93.90
47590;DHT22;33316;52.298;9.056;2024-01-30T13:10:29;11.50;94.00
47590;DHT22;33316;52.298;9.056;2024-01-30T13:13:02;11.60;94.10
47590;DHT22;33316;52.298;9.056;2024-01-30T13:15:29;11.60;94.20
47590;DHT22;33316;52.298;9.056;2024-01-30T13:17:56;11.50;94.30
47590;DHT22;33316;52.298;9.056;2024-01-30T13:20:23;11.60;94.30
47590;DHT22;33316;52.298;9.056;2024-01-30T13:22:51;11.60;94.70
47590;DHT22;33316;52.298;9.056;2024-01-30T13:25:18;11.60;94.40
47590;DHT22;33316;52.298;9.056;2024-01-30T13:27:45;11.70;94.50
47590;DHT22;33316;52.298;9.056;2024-01-30T13:30:14;11.60;94.40
47590;DHT22;33316;52.298;9.056;2024-01-30T13:32:41;11.70;94.50
47590;DHT22;33316;52.298;9.056;2024-01-30T13:35:10;11.60;94.80
47590;DHT22;33316;52.298;9.056;2024-01-30T13:37:38;11.70;94.90
47590;DHT22;33316;52.298;9.056;2024-01-30T13:40:08;11.70;94.50
47590;DHT22;33316;52.298;9.056;2024-01-30T13:42:35;11.70;94.50
47590;DHT22;33316;52.298;9.056;2024-01-30T13:45:03;11.70;94.50
47590;DHT22;33316;52.298;9.056;2024-01-30T13:47:32;11.70;94.50
47590;DHT22;33316;52.298;9.056;2024-01-30T13:49:59;11.70;94.60
47590;DHT22;33316;52.298;9.056;2024-01-30T13:52:26;11.70;94.70
47590;DHT22;33316;52.298;9.056;2024-01-30T13:54:54;11.80;94.70
47590;DHT22;33316;52.298;9.056;2024-01-30T13:57:22;11.80;94.80
47590;DHT22;33316;52.298;9.056;2024-01-30T13:59:49;11.80;94.80
47590;DHT22;33316;52.298;9.056;2024-01-30T14:02:18;11.80;94.80
47590;DHT22;33316;52.298;9.056;2024-01-30T14:04:48;11.80;94.80
47590;DHT22;33316;52.298;9.056;2024-01-30T14:07:15;11.80;94.80
47590;DHT22;33316;52.298;9.056;2024-01-30T14:09:48;11.80;94.90
47590;DHT22;33316;52.298;9.056;2024-01-30T14:12:15;11.80;94.80
47590;DHT22;33316;52.298;9.056;2024-01-30T14:14:47;11.80;94.90
47590;DHT22;33316;52.298;9.056;2024-01-30T14:17:20;11.90;94.90
47590;DHT22;33316;52.298;9.056;2024-01-30T14:19:49;11.90;95.00
47590;DHT22;33316;52.298;9.056;2024-01-30T14:22:16;11.90;95.00
47590;DHT22;33316;52.298;9.056;2024-01-30T14:24:46;11.90;95.00
47590;DHT22;33316;52.298;9.056;2024-01-30T14:27:13;11.90;95.00
47590;DHT22;33316;52.298;9.056;2024-01-30T14:29:42;11.90;95.00
47590;DHT22;33316;52.298;9.056;2024-01-30T14:32:13;11.90;95.00
47590;DHT22;33316;52.298;9.056;2024-01-30T14:34:40;11.90;95.00
47590;DHT22;33316;52.298;9.056;2024-01-30T14:37:08;11.90;95.10
47590;DHT22;33316;52.298;9.056;2024-01-30T14:39:35;11.90;95.10
47590;DHT22;33316;52.298;9.056;2024-01-30T14:42:03;11.90;95.10
47590;DHT22;33316;52.298;9.056;2024-01-30T14:44:31;12.00;95.10
47590;DHT22;33316;52.298;9.056;2024-01-30T14:47:01;11.90;95.10
47590;DHT22;33316;52.298;9.056;2024-01-30T14:49:28;11.90;95.10
47590;DHT22;33316;52.298;9.056;2024-01-30T14:51:55;11.90;95.20
47590;DHT22;33316;52.298;9.056;2024-01-30T14:54:27;11.90;95.20
47590;DHT22;33316;52.298;9.056;2024-01-30T14:56:54;11.90;95.20
47590;DHT22;33316;52.298;9.056;2024-01-30T14:59:25;11.90;95.30
47590;DHT22;33316;52.298;9.056;2024-01-30T15:01:52;11.90;95.30
47590;DHT22;33316;52.298;9.056;2024-01-30T15:04:19;11.90;95.30
47590;DHT22;33316;52.298;9.056;2024-01-30T15:06:46;11.90;95.30
47590;DHT22;33316;52.298;9.056;2024-01-30T15:09:15;11.90;95.40
47590;DHT22;33316;52.298;9.056;2024-01-30T15:11:44;11.90;95.40
47590;DHT22;33316;52.298;9.056;2024-01-30T15:14:11;11.90;95.50
47590;DHT22;33316;52.298;9.056;2024-01-30T15:16:40;11.90;95.50
47590;DHT22;33316;52.298;9.056;2024-01-30T15:19:08;12.00;95.50
47590;DHT22;33316;52.298;9.056;2024-01-30T15:21:35;11.90;95.90
47590;DHT22;33316;52.298;9.056;2024-01-30T15:24:03;11.90;95.60
47590;DHT22;33316;52.298;9.056;2024-01-30T15:26:31;11.90;95.70
47590;DHT22;33316;52.298;9.056;2024-01-30T15:29:00;11.90;95.70
47590;DHT22;33316;52.298;9.056;2024-01-30T15:31:27;11.90;95.80
47590;DHT22;33316;52.298;9.056;2024-01-30T15:33:54;12.00;95.80
47590;DHT22;33316;52.298;9.056;2024-01-30T15:36:22;12.00;95.90
47590;DHT22;33316;52.298;9.056;2024-01-30T15:38:49;12.00;95.90
47590;DHT22;33316;52.298;9.056;2024-01-30T15:41:19;12.00;95.90
47590;DHT22;33316;52.298;9.056;2024-01-30T15:43:46;12.00;95.90
47590;DHT22;33316;52.298;9.056;2024-01-30T15:46:16;12.00;95.80
47590;DHT22;33316;52.298;9.056;2024-01-30T15:48:43;12.00;95.90